Terminal Aerodrome Forecast
Issued by NWS Albuquerque, NM

Home | Current Version | Previous Version | Text Only | Print | Product List | Glossary On
Versions: 1 2 3 4 5 6 7 8 9 10 11 12
000
FTUS45 KABQ 282339
TAFABQ
TAF
KABQ 282339Z 2900/2924 32011KT P6SM SCT080 BKN110
     FM290600 04005KT P6SM SCT080 BKN120
     FM292000 23011KT P6SM SCT120
     FM292300 10010G20KT P6SM VCSH SCT080 BKN120=

USA.gov is the U.S. government's official web portal to all federal, state and local government web resources and services.